Pierceton, Indiana
Current Conditions -  °F | °C
As of 8:35 PM on Monday 24 Nov 2014 (Local Time) from KASW Reporting Station
Overcast Overcast  
Wind Chill: 18°   Ceiling: 1800
Heat Index: 32°   Visibility: 10mi
Dew Point: 28°   Wind: 28mph
Humidity: 87%   Direction: 250°WSW
Pressure: 29.72"   Gusts: 41mph
Location:  41.2°N, 85.71°W
Report Text: KASW 250135Z AUTO 25024G36KT 10SM OVC018 00/M02 A2972 RMK AO2
Loading
Personal Weather Stations






























Interactive Weather Map New forecast layout! Learn more

10-Day Weather Forecast

Advertisements
Track Severe Weather on mobile